Time;durP1;ratioP1;P1;durP2;ratioP2;P2;SDS_P1;SDS_P2;PMS_P1;PMS_P2;Temp;Humidity;BMP_temperature;BMP_pressure;BME280_temperature;BME280_humidity;BME280_pressure;Samples;Min_cycle;Max_cycle;Signal;HPM_P1;HPM_P2
2022/08/16 00:00:36;;;;;;;8.35;7.60;;;;;;;19.04;92.01;63969.09;4891968;29;20214;-80
2022/08/16 00:03:03;;;;;;;7.68;7.00;;;;;;;19.00;90.63;63964.94;4893681;29;20318;-81
2022/08/16 00:05:31;;;;;;;6.30;5.72;;;;;;;18.95;89.46;63965.41;4894000;29;20211;-80
2022/08/16 00:07:59;;;;;;;6.43;5.82;;;;;;;18.95;89.93;63960.25;4898076;29;20249;-80
2022/08/16 00:10:29;;;;;;;6.68;5.72;;;;;;;18.90;90.53;63955.03;4893816;29;20274;-80
2022/08/16 00:12:57;;;;;;;11.38;6.18;;;;;;;18.86;88.83;63945.69;4896117;29;20281;-80
2022/08/16 00:15:27;;;;;;;6.68;6.00;;;;;;;18.85;91.96;63951.88;4890246;29;20362;-79
2022/08/16 00:17:55;;;;;;;6.53;6.03;;;;;;;18.82;92.47;63946.69;4890056;29;20214;-79
2022/08/16 00:20:22;;;;;;;6.22;5.63;;;;;;;18.64;92.02;63930.00;4887014;29;20238;-78
2022/08/16 00:22:50;;;;;;;7.38;6.53;;;;;;;18.74;92.77;63937.84;4895862;29;20211;-79
2022/08/16 00:25:21;;;;;;;8.60;7.80;;;;;;;18.70;95.09;63936.75;4894076;29;20512;-80
2022/08/16 00:27:49;;;;;;;8.50;7.70;;;;;;;18.66;97.66;63929.47;4894501;29;20203;-78
2022/08/16 00:30:19;;;;;;;9.98;8.98;;;;;;;18.70;100.00;63934.19;4893649;29;20288;-79
2022/08/16 00:32:53;;;;;;;9.80;8.60;;;;;;;18.68;100.00;63932.09;4894821;29;20250;-79
2022/08/16 00:35:23;;;;;;;9.57;8.50;;;;;;;18.62;100.00;63923.25;4893988;29;20238;-79
2022/08/16 00:37:51;;;;;;;9.70;8.63;;;;;;;18.69;100.00;63932.63;4893995;29;20249;-78
2022/08/16 00:40:21;;;;;;;10.52;9.02;;;;;;;18.67;100.00;63927.97;4895119;29;20289;-79
2022/08/16 00:42:49;;;;;;;9.20;8.38;;;;;;;18.47;100.00;63910.22;4896692;29;20234;-80
2022/08/16 00:45:34;;;;;;;10.75;9.18;;;;;;;18.64;100.00;63927.41;4892504;29;20276;-80
2022/08/16 00:48:06;;;;;;;11.18;9.40;;;;;;;18.52;100.00;63914.91;4894413;29;20217;-80
2022/08/16 00:50:37;;;;;;;10.35;9.02;;;;;;;18.59;100.00;63925.28;4895788;29;20220;-80
2022/08/16 00:53:05;;;;;;;9.88;8.57;;;;;;;18.57;100.00;63922.69;4897164;29;20242;-80
2022/08/16 00:55:32;;;;;;;9.38;8.45;;;;;;;18.60;100.00;63926.34;4894939;29;20282;-81
2022/08/16 00:58:00;;;;;;;9.82;8.82;;;;;;;18.57;100.00;63918.03;4895845;29;20342;-80
2022/08/16 01:00:28;;;;;;;11.75;9.15;;;;;;;18.61;100.00;63927.38;4893915;29;20214;-80
2022/08/16 01:02:56;;;;;;;9.82;8.82;;;;;;;18.68;100.00;63931.56;4882864;29;20218;-79
2022/08/16 01:05:26;;;;;;;14.65;9.00;;;;;;;18.64;100.00;63930.50;4894250;29;20209;-81
2022/08/16 01:07:56;;;;;;;9.02;8.13;;;;;;;18.63;100.00;63926.88;4896531;29;20500;-83
2022/08/16 01:10:25;;;;;;;10.57;8.98;;;;;;;18.71;100.00;63940.38;4906772;29;20234;-80
2022/08/16 01:12:52;;;;;;;9.52;8.55;;;;;;;18.73;100.00;63934.72;4882254;29;20290;-79
2022/08/16 01:15:20;;;;;;;13.90;7.93;;;;;;;18.80;100.00;63944.06;4893352;29;20430;-78
2022/08/16 01:17:49;;;;;;;11.55;7.80;;;;;;;18.81;100.00;63945.63;4894524;29;20214;-81
2022/08/16 01:20:19;;;;;;;8.23;7.43;;;;;;;18.82;100.00;63946.69;4893200;29;20238;-80
2022/08/16 01:22:58;;;;;;;9.15;8.35;;;;;;;18.89;100.00;63948.31;4893698;29;20258;-83
2022/08/16 01:25:31;;;;;;;8.48;7.70;;;;;;;18.94;100.00;63961.78;4894164;29;20266;-81
2022/08/16 01:28:01;;;;;;;10.85;9.65;;;;;;;18.94;100.00;63956.09;4894280;29;20218;-80
2022/08/16 01:30:32;;;;;;;10.10;8.02;;;;;;;19.03;100.00;63963.44;4891053;29;20258;-80
2022/08/16 01:33:04;;;;;;;10.85;8.20;;;;;;;19.00;100.00;63962.34;4889877;29;20230;-80
2022/08/16 01:35:36;;;;;;;9.80;8.40;;;;;;;19.02;100.00;63970.13;4894785;29;20274;-80
2022/08/16 01:38:18;;;;;;;9.80;8.80;;;;;;;19.03;100.00;63968.59;4892694;29;20215;-79
2022/08/16 01:40:47;;;;;;;10.63;8.82;;;;;;;18.99;100.00;63961.31;4892311;29;20206;-79
2022/08/16 01:43:14;;;;;;;9.68;8.80;;;;;;;19.00;100.00;63965.44;4892839;29;20222;-80
2022/08/16 01:45:41;;;;;;;12.02;10.05;;;;;;;19.02;100.00;63962.38;4894827;29;20284;-80
2022/08/16 01:48:08;;;;;;;10.70;9.70;;;;;;;19.03;100.00;63966.00;4893158;29;20230;-80
2022/08/16 01:50:36;;;;;;;10.85;9.02;;;;;;;19.04;100.00;63974.78;4894673;29;20282;-78
2022/08/16 01:53:04;;;;;;;10.80;8.45;;;;;;;19.02;100.00;63969.59;4893394;29;20242;-79
2022/08/16 01:55:31;;;;;;;14.05;8.20;;;;;;;19.04;100.00;63972.22;4888163;29;20211;-79
2022/08/16 01:58:00;;;;;;;9.85;8.82;;;;;;;19.06;100.00;63973.78;4891068;29;20616;-79
2022/08/16 02:00:27;;;;;;;9.45;8.55;;;;;;;19.07;100.00;63970.16;4892428;29;20211;-79
2022/08/16 02:02:55;;;;;;;9.02;8.13;;;;;;;19.09;100.00;63972.25;4893878;29;20210;-79
2022/08/16 02:05:22;;;;;;;8.60;7.70;;;;;;;19.13;100.00;63975.91;4892718;29;20250;-80
2022/08/16 02:07:49;;;;;;;9.13;8.07;;;;;;;19.11;100.00;63978.97;4892623;29;20459;-80
2022/08/16 02:10:16;;;;;;;8.65;7.70;;;;;;;19.13;100.00;63981.59;4892423;29;20474;-79
2022/08/16 02:12:44;;;;;;;10.18;8.85;;;;;;;19.21;100.00;63987.34;4886742;29;20247;-79
2022/08/16 02:15:15;;;;;;;11.85;10.65;;;;;;;19.20;100.00;63985.78;4891830;29;20231;-79
2022/08/16 02:17:42;;;;;;;10.18;9.18;;;;;;;19.26;100.00;63992.03;4892360;29;20207;-79
2022/08/16 02:20:10;;;;;;;10.55;9.55;;;;;;;19.29;100.00;64002.94;4893838;29;20230;-78
2022/08/16 02:22:37;;;;;;;12.95;11.15;;;;;;;19.34;100.00;64000.94;4895031;29;20279;-78
2022/08/16 02:25:09;;;;;;;12.70;11.30;;;;;;;19.30;100.00;63996.22;4890304;29;20482;-80
2022/08/16 02:27:36;;;;;;;11.85;10.55;;;;;;;19.34;100.00;64000.41;4891642;29;20202;-80
2022/08/16 02:30:06;;;;;;;11.40;9.77;;;;;;;19.38;100.00;64005.09;4878530;29;20242;-77
2022/08/16 02:32:35;;;;;;;14.07;11.43;;;;;;;19.24;100.00;63989.97;4892180;29;20230;-80
2022/08/16 02:35:02;;;;;;;12.48;11.23;;;;;;;19.20;100.00;63986.31;4891875;29;20227;-78
2022/08/16 02:37:29;;;;;;;12.63;10.95;;;;;;;19.14;100.00;63982.63;4892279;29;20215;-79
2022/08/16 02:39:55;;;;;;;13.25;11.82;;;;;;;19.00;100.00;63962.88;4891426;29;20289;-79
2022/08/16 02:42:22;;;;;;;13.70;12.00;;;;;;;19.01;100.00;63965.97;4892095;29;20542;-79
2022/08/16 02:44:49;;;;;;;13.40;11.98;;;;;;;18.94;100.00;63959.22;4890652;29;20242;-80
2022/08/16 02:47:17;;;;;;;12.50;11.18;;;;;;;19.02;100.00;63967.00;4892734;29;20207;-78
2022/08/16 02:49:45;;;;;;;15.68;11.32;;;;;;;18.92;100.00;63951.44;4892942;29;20238;-79
2022/08/16 02:52:13;;;;;;;12.27;10.82;;;;;;;19.02;100.00;63967.53;4889290;29;20219;-78
2022/08/16 02:54:41;;;;;;;11.27;10.02;;;;;;;19.09;100.00;63974.31;4891856;29;20240;-79
2022/08/16 02:57:08;;;;;;;14.07;11.25;;;;;;;19.13;100.00;63981.06;4891304;29;20210;-79
2022/08/16 02:59:35;;;;;;;14.98;11.90;;;;;;;19.19;100.00;63982.69;4891063;29;20274;-79
2022/08/16 03:02:02;;;;;;;14.45;12.20;;;;;;;19.16;100.00;63982.13;4889550;29;20238;-78
2022/08/16 03:04:29;;;;;;;12.40;11.10;;;;;;;19.23;100.00;63988.91;4892174;29;20258;-81
2022/08/16 03:06:57;;;;;;;13.63;10.75;;;;;;;19.20;100.00;63981.16;4892620;29;20238;-79
2022/08/16 03:09:25;;;;;;;12.93;10.50;;;;;;;19.21;100.00;63989.41;4891344;29;20255;-79
2022/08/16 03:11:52;;;;;;;12.57;11.27;;;;;;;19.17;100.00;63983.16;4889731;29;20210;-79
2022/08/16 03:14:19;;;;;;;12.70;11.00;;;;;;;19.10;100.00;63975.38;4882675;29;20238;-78
2022/08/16 03:16:47;;;;;;;12.50;11.02;;;;;;;19.07;100.00;63975.31;4893772;29;20214;-79
2022/08/16 03:19:14;;;;;;;12.20;9.52;;;;;;;19.09;100.00;63974.84;4890814;29;20230;-81
2022/08/16 03:21:41;;;;;;;12.18;10.40;;;;;;;19.02;100.00;63964.44;4892718;29;20206;-80
2022/08/16 03:24:10;;;;;;;11.57;9.88;;;;;;;18.99;100.00;63961.84;4895400;29;20227;-81
2022/08/16 03:26:38;;;;;;;11.60;10.40;;;;;;;18.90;100.00;63955.03;4894986;29;20215;-79
2022/08/16 03:29:05;;;;;;;12.98;10.60;;;;;;;18.62;100.00;63920.16;4890568;29;20230;-80
2022/08/16 03:31:32;;;;;;;12.13;10.93;;;;;;;18.48;100.00;63905.56;4896593;29;20275;-79
2022/08/16 03:33:59;;;;;;;13.93;10.60;;;;;;;18.41;100.00;63904.47;4895872;29;20238;-79
2022/08/16 03:36:27;;;;;;;12.43;11.07;;;;;;;18.42;100.00;63905.00;4882992;29;20237;-79
2022/08/16 03:38:54;;;;;;;13.27;10.20;;;;;;;18.45;100.00;63910.19;4895069;29;20551;-79
2022/08/16 03:41:25;;;;;;;11.43;10.23;;;;;;;18.40;100.00;63905.50;4895555;29;20206;-79
2022/08/16 03:43:53;;;;;;;11.43;10.32;;;;;;;18.38;100.00;63903.38;4896124;29;20241;-80
2022/08/16 03:46:21;;;;;;;11.80;10.70;;;;;;;18.35;100.00;63898.22;4894786;29;20218;-80
2022/08/16 03:48:49;;;;;;;12.80;11.18;;;;;;;18.43;100.00;63908.63;4896379;29;20234;-81
2022/08/16 03:51:16;;;;;;;12.77;11.35;;;;;;;18.49;100.00;63914.88;4896391;29;20447;-80
2022/08/16 03:53:44;;;;;;;14.70;10.65;;;;;;;18.43;100.00;63903.97;4895600;29;20270;-80
2022/08/16 03:56:14;;;;;;;12.02;10.20;;;;;;;18.43;100.00;63903.97;4893708;29;20421;-79
2022/08/16 03:58:43;;;;;;;16.23;9.77;;;;;;;18.35;100.00;63900.78;4895528;29;20230;-80
2022/08/16 04:01:10;;;;;;;11.20;9.93;;;;;;;18.47;100.00;63912.25;4896130;29;20273;-79
2022/08/16 04:03:39;;;;;;;11.77;10.63;;;;;;;18.54;100.00;63911.81;4895125;29;20230;-79
2022/08/16 04:06:06;;;;;;;15.18;10.57;;;;;;;18.57;100.00;63920.13;4892162;29;20214;-81
2022/08/16 04:08:33;;;;;;;10.52;9.52;;;;;;;18.60;100.00;63923.78;4895064;29;20265;-80
2022/08/16 04:11:02;;;;;;;11.15;10.07;;;;;;;18.62;100.00;63922.75;4892825;29;20217;-80
2022/08/16 04:13:30;;;;;;;12.13;10.75;;;;;;;18.65;100.00;63928.97;4887725;29;20699;-80
2022/08/16 04:16:00;;;;;;;10.38;9.38;;;;;;;18.72;100.00;63935.75;4884717;29;20492;-80
2022/08/16 04:18:27;;;;;;;14.18;9.20;;;;;;;18.70;100.00;63936.25;4891118;29;20286;-80
2022/08/16 04:21:01;;;;;;;10.77;9.80;;;;;;;18.77;100.00;63941.47;4894784;29;20211;-81
2022/08/16 04:23:37;;;;;;;11.48;10.18;;;;;;;18.86;100.00;63950.84;4891803;29;20223;-78
2022/08/16 04:26:05;;;;;;;9.43;8.45;;;;;;;18.95;100.00;63959.72;4893755;29;20252;-79
2022/08/16 04:28:32;;;;;;;11.95;9.75;;;;;;;19.06;100.00;63971.72;4895195;29;20238;-78
2022/08/16 04:31:00;;;;;;;10.30;9.40;;;;;;;19.05;100.00;63972.72;4894774;29;20556;-79
2022/08/16 04:33:27;;;;;;;11.07;9.70;;;;;;;19.04;100.00;63971.69;4882391;29;20243;-80
2022/08/16 04:35:56;;;;;;;11.85;10.35;;;;;;;19.08;100.00;63971.22;4892639;29;20561;-79
2022/08/16 04:38:23;;;;;;;12.00;9.93;;;;;;;19.14;100.00;63974.34;4894779;29;20238;-79
2022/08/16 04:40:50;;;;;;;12.73;9.80;;;;;;;19.18;100.00;63981.66;4895171;29;20253;-79
2022/08/16 04:43:17;;;;;;;10.68;9.57;;;;;;;19.29;100.00;63995.19;4895236;29;20250;-80
2022/08/16 04:45:44;;;;;;;11.48;9.82;;;;;;;19.44;100.00;64013.94;4894706;29;20217;-79
2022/08/16 04:48:13;;;;;;;11.68;9.85;;;;;;;19.53;100.00;64023.31;4894319;29;20207;-80
2022/08/16 04:50:40;;;;;;;10.75;9.75;;;;;;;19.66;100.00;64033.78;4891258;29;20255;-80
2022/08/16 04:53:07;;;;;;;9.25;8.35;;;;;;;19.65;100.00;64032.22;4895388;29;20306;-79
2022/08/16 04:55:35;;;;;;;10.27;9.07;;;;;;;19.78;100.00;64043.19;4895784;29;20218;-79
2022/08/16 04:58:02;;;;;;;13.23;8.93;;;;;;;19.82;100.00;64052.53;4894064;29;20206;-81
2022/08/16 05:00:33;;;;;;;10.52;9.43;;;;;;;19.86;100.00;64052.06;4892990;29;20218;-79
2022/08/16 05:03:03;;;;;;;12.88;9.30;;;;;;;19.95;100.00;64063.53;4894405;29;20262;-79
2022/08/16 05:05:32;;;;;;;11.32;10.15;;;;;;;19.89;100.00;64057.25;4890333;29;20207;-80
2022/08/16 05:07:59;;;;;;;10.65;9.65;;;;;;;19.96;100.00;64067.13;4883224;29;20226;-81
2022/08/16 05:10:27;;;;;;;12.13;10.93;;;;;;;19.95;100.00;64069.19;4894246;29;20215;-79
2022/08/16 05:12:55;;;;;;;12.80;10.50;;;;;;;20.04;100.00;64076.00;4892665;29;20213;-81
2022/08/16 05:15:22;;;;;;;12.40;10.15;;;;;;;20.08;100.00;64075.00;4894628;29;20535;-78
2022/08/16 05:17:49;;;;;;;13.23;10.15;;;;;;;20.25;100.00;64097.41;4891677;29;20230;-79
2022/08/16 05:20:17;;;;;;;14.57;10.82;;;;;;;20.27;100.00;64096.91;4893242;29;20231;-79
2022/08/16 05:22:45;;;;;;;13.40;11.80;;;;;;;20.03;100.00;64074.44;4894067;29;20243;-79
2022/08/16 05:25:13;;;;;;;18.25;13.13;;;;;;;20.10;100.00;64084.34;4897569;29;20298;-79
2022/08/16 05:27:41;;;;;;;17.92;13.32;;;;;;;19.99;100.00;64065.09;4888704;29;20207;-79
2022/08/16 05:30:11;;;;;;;18.73;13.38;;;;;;;20.18;100.00;64088.06;4888336;29;20219;-78
2022/08/16 05:32:39;;;;;;;17.98;13.60;;;;;;;20.38;100.00;64111.50;4892139;29;20202;-80
2022/08/16 05:35:09;;;;;;;18.60;14.27;;;;;;;20.41;100.00;64112.06;4887730;29;20239;-79
2022/08/16 05:37:37;;;;;;;19.25;13.27;;;;;;;20.45;100.00;64115.69;4891961;29;20210;-78
2022/08/16 05:40:08;;;;;;;17.42;12.77;;;;;;;20.59;100.00;64128.25;4892736;29;20230;-79
2022/08/16 05:42:36;;;;;;;18.83;13.07;;;;;;;20.68;100.00;64137.13;4892191;29;20509;-80
2022/08/16 05:45:04;;;;;;;15.57;12.05;;;;;;;20.94;100.00;64166.84;4890088;29;20287;-77
2022/08/16 05:47:31;;;;;;;20.67;12.20;;;;;;;21.05;100.00;64175.25;4891827;29;20206;-77
2022/08/16 05:49:58;;;;;;;20.30;12.55;;;;;;;21.08;100.00;64178.38;4892632;29;20270;-78
2022/08/16 05:52:25;;;;;;;15.15;11.25;;;;;;;21.06;100.00;64178.88;4883042;29;20257;-78
2022/08/16 05:54:52;;;;;;;13.75;12.23;;;;;;;21.01;100.00;64171.06;4890368;29;20242;-77
2022/08/16 05:57:21;;;;;;;11.63;10.52;;;;;;;20.91;100.00;64163.22;4891921;29;20286;-78
2022/08/16 05:59:49;;;;;;;16.60;11.65;;;;;;;20.86;100.00;64158.50;4889323;29;20230;-78
2022/08/16 06:02:16;;;;;;;18.13;12.38;;;;;;;20.80;100.00;64149.13;4883012;29;20227;-79
2022/08/16 06:04:44;;;;;;;14.38;11.98;;;;;;;20.65;100.00;64134.00;4885227;29;20286;-78
2022/08/16 06:07:12;;;;;;;11.52;10.32;;;;;;;20.56;100.00;64127.72;4890563;29;20434;-79
2022/08/16 06:09:39;;;;;;;14.15;11.57;;;;;;;20.74;100.00;64148.03;4891748;29;20237;-77
2022/08/16 06:12:06;;;;;;;16.92;11.52;;;;;;;20.73;100.00;64147.00;4889233;29;20241;-80
2022/08/16 06:14:35;;;;;;;15.70;11.35;;;;;;;20.73;100.00;64141.81;4891337;29;20471;-78
2022/08/16 06:17:02;;;;;;;14.88;11.20;;;;;;;21.08;100.00;64181.50;4891914;29;20241;-78
2022/08/16 06:19:29;;;;;;;13.43;10.63;;;;;;;21.33;100.00;64209.69;4891385;29;20236;-79
2022/08/16 06:21:56;;;;;;;13.50;10.77;;;;;;;21.37;98.63;64206.59;4888875;29;20312;-76
2022/08/16 06:24:23;;;;;;;15.05;10.60;;;;;;;21.46;98.36;64218.59;4891286;29;20336;-78
2022/08/16 06:26:50;;;;;;;12.35;11.13;;;;;;;21.32;98.76;64209.16;4891414;29;20555;-79
2022/08/16 06:29:17;;;;;;;12.55;10.88;;;;;;;21.09;98.16;64179.94;4890043;29;20243;-77
2022/08/16 06:31:46;;;;;;;13.10;11.43;;;;;;;21.34;96.83;64208.13;4891338;29;20350;-78
2022/08/16 06:34:14;;;;;;;14.85;10.50;;;;;;;21.48;96.17;64222.75;4888419;29;20646;-80
2022/08/16 06:36:41;;;;;;;11.45;10.30;;;;;;;21.56;93.05;64231.09;4884623;29;20719;-80
2022/08/16 06:39:08;;;;;;;11.40;9.73;;;;;;;21.81;90.95;64254.13;4887490;29;20393;-78
2022/08/16 06:41:36;;;;;;;11.88;10.35;;;;;;;21.85;92.59;64260.91;4881253;29;20267;-79
2022/08/16 06:44:04;;;;;;;14.52;11.32;;;;;;;21.80;91.35;64258.78;4879720;29;20414;-80
2022/08/16 06:46:34;;;;;;;18.60;11.75;;;;;;;21.78;92.70;64254.63;4895438;29;20226;-79
2022/08/16 06:49:03;;;;;;;11.77;10.48;;;;;;;21.86;92.36;64259.88;4895171;29;20246;-79
2022/08/16 06:51:30;;;;;;;18.23;11.10;;;;;;;21.90;91.20;64266.13;4894232;29;20238;-78
2022/08/16 06:53:57;;;;;;;11.98;10.10;;;;;;;21.97;91.17;64271.38;4880571;29;20242;-78
2022/08/16 06:56:25;;;;;;;12.10;10.15;;;;;;;21.99;89.64;64276.06;4894188;29;20471;-80
2022/08/16 06:58:53;;;;;;;12.77;10.27;;;;;;;22.14;88.18;64291.72;4899552;29;20238;-80
2022/08/16 07:01:21;;;;;;;12.07;10.00;;;;;;;22.43;90.01;64318.94;4880436;29;20196;-80
2022/08/16 07:03:48;;;;;;;10.80;9.73;;;;;;;22.56;89.96;64335.66;4896940;29;20286;-79
2022/08/16 07:06:18;;;;;;;13.15;11.43;;;;;;;22.55;86.94;64331.50;4897018;29;20210;-79
2022/08/16 07:08:46;;;;;;;13.27;10.57;;;;;;;22.54;86.76;64328.38;4898358;29;20227;-80
2022/08/16 07:11:13;;;;;;;18.05;10.45;;;;;;;22.55;86.07;64331.50;4896753;29;20211;-79
2022/08/16 07:13:41;;;;;;;11.15;10.05;;;;;;;22.52;88.69;64331.44;4892675;29;20290;-79
2022/08/16 07:16:13;;;;;;;15.75;10.70;;;;;;;22.65;88.02;64352.88;4899599;29;20270;-78
2022/08/16 07:18:41;;;;;;;12.57;9.73;;;;;;;22.78;85.76;64358.66;4898756;29;20581;-79
2022/08/16 07:21:08;;;;;;;9.90;8.88;;;;;;;22.93;85.63;64371.22;4899908;29;20213;-80
2022/08/16 07:23:37;;;;;;;9.80;8.80;;;;;;;23.06;82.60;64389.47;4897823;29;20285;-80
2022/08/16 07:26:07;;;;;;;9.20;8.27;;;;;;;23.12;80.63;64393.16;4898248;29;20207;-80
2022/08/16 07:28:34;;;;;;;11.15;8.90;;;;;;;23.28;79.65;64413.03;4889619;29;20245;-79
2022/08/16 07:31:02;;;;;;;11.85;8.98;;;;;;;23.53;81.50;64434.00;4904891;29;20424;-79
2022/08/16 07:33:29;;;;;;;10.00;9.02;;;;;;;23.40;79.80;64423.00;4898332;29;20231;-78
2022/08/16 07:35:58;;;;;;;11.88;9.10;;;;;;;23.44;78.00;64426.66;4897434;29;20265;-79
2022/08/16 07:38:26;;;;;;;9.25;8.32;;;;;;;23.57;78.63;64437.66;4898027;29;20670;-78
2022/08/16 07:40:55;;;;;;;9.40;8.43;;;;;;;23.73;76.92;64457.53;4893878;29;20210;-80
2022/08/16 07:43:22;;;;;;;10.30;9.20;;;;;;;23.69;78.53;64452.81;4896793;29;20254;-82
2022/08/16 07:45:49;;;;;;;12.93;8.77;;;;;;;23.90;77.42;64475.31;4897932;29;20221;-80
2022/08/16 07:48:17;;;;;;;10.68;9.50;;;;;;;24.10;76.21;64492.63;4886544;29;20461;-80
2022/08/16 07:50:45;;;;;;;11.10;8.50;;;;;;;24.22;73.58;64510.38;4896044;29;20298;-78
2022/08/16 07:53:12;;;;;;;10.07;8.52;;;;;;;24.36;72.70;64525.56;4897280;29;20211;-79
2022/08/16 07:55:40;;;;;;;10.98;9.88;;;;;;;24.42;70.86;64528.72;4891470;29;20262;-78
2022/08/16 07:58:10;;;;;;;10.88;8.75;;;;;;;24.34;72.15;64523.47;4893632;29;20206;-78
2022/08/16 08:00:38;;;;;;;9.65;8.48;;;;;;;24.41;73.74;64528.19;4893696;29;20199;-80
2022/08/16 08:03:06;;;;;;;12.32;8.95;;;;;;;24.54;72.81;64541.28;4888411;29;20218;-81
2022/08/16 08:05:33;;;;;;;12.85;10.02;;;;;;;24.55;71.31;64545.47;4896217;29;20211;-80
2022/08/16 08:08:00;;;;;;;10.63;9.50;;;;;;;24.70;73.14;64561.19;4893488;29;20542;-79
2022/08/16 08:10:27;;;;;;;9.63;8.82;;;;;;;24.85;69.20;64569.06;4897046;29;20266;-79
2022/08/16 08:12:56;;;;;;;10.07;8.93;;;;;;;24.97;69.64;64586.84;4888914;29;20211;-79
2022/08/16 08:15:26;;;;;;;13.35;9.45;;;;;;;25.15;68.81;64602.59;4893288;29;20440;-78
2022/08/16 08:17:53;;;;;;;10.85;9.10;;;;;;;25.25;65.77;64617.75;4896497;29;20203;-80
2022/08/16 08:20:26;;;;;;;14.80;8.73;;;;;;;25.29;63.21;64616.72;4895462;29;20247;-80
2022/08/16 08:22:55;;;;;;;13.05;9.52;;;;;;;25.41;63.32;64635.06;4887213;29;20206;-79
2022/08/16 08:25:22;;;;;;;13.88;9.60;;;;;;;25.39;63.56;64637.66;4892294;29;20223;-78
2022/08/16 08:27:49;;;;;;;14.63;9.57;;;;;;;25.41;65.34;64629.31;4893783;29;20507;-79
2022/08/16 08:30:19;;;;;;;11.18;8.68;;;;;;;25.56;65.80;64648.16;4895469;29;20294;-78
2022/08/16 08:32:48;;;;;;;9.07;8.18;;;;;;;25.72;64.55;64664.94;4896017;29;20276;-79
2022/08/16 08:35:15;;;;;;;11.07;9.93;;;;;;;25.60;62.35;64654.97;4887055;29;20238;-78
2022/08/16 08:37:42;;;;;;;9.90;8.93;;;;;;;25.56;63.53;64650.25;4892201;29;20206;-78
2022/08/16 08:40:11;;;;;;;13.98;9.35;;;;;;;25.55;63.84;64649.72;4895670;29;20258;-79
2022/08/16 08:42:42;;;;;;;11.27;9.13;;;;;;;25.82;63.04;64677.50;4885800;29;20211;-81
2022/08/16 08:45:11;;;;;;;10.50;8.68;;;;;;;25.96;61.76;64687.47;4888211;29;20238;-79
2022/08/16 08:47:41;;;;;;;14.13;9.82;;;;;;;25.86;62.59;64676.47;4894747;29;20274;-80
2022/08/16 08:50:11;;;;;;;14.95;8.80;;;;;;;25.86;63.18;64684.31;4894325;29;20241;-80
2022/08/16 08:52:39;;;;;;;10.55;9.20;;;;;;;26.07;62.53;64701.66;4891025;29;20208;-80
2022/08/16 08:55:09;;;;;;;10.45;8.88;;;;;;;26.14;60.22;64708.97;4894240;29;20249;-81
2022/08/16 08:57:36;;;;;;;11.80;8.65;;;;;;;26.44;59.46;64742.50;4896289;29;20222;-79
2022/08/16 09:00:04;;;;;;;8.95;8.05;;;;;;;26.68;58.85;64759.84;4889898;29;20226;-81
2022/08/16 09:02:32;;;;;;;14.20;8.98;;;;;;;26.77;58.50;64774.00;4894146;29;20310;-79
2022/08/16 09:04:59;;;;;;;9.75;8.75;;;;;;;26.66;57.50;64760.34;4890123;29;20227;-79
2022/08/16 09:07:27;;;;;;;10.10;8.07;;;;;;;26.73;57.21;64769.81;4882252;29;20203;-79
2022/08/16 09:09:54;;;;;;;8.82;7.97;;;;;;;26.84;57.39;64778.72;4884071;29;20227;-80
2022/08/16 09:12:22;;;;;;;12.10;7.30;;;;;;;26.80;56.90;64779.78;4895596;29;20226;-80
2022/08/16 09:14:49;;;;;;;10.23;7.55;;;;;;;27.11;54.43;64812.81;4895777;29;20246;-79
2022/08/16 09:17:17;;;;;;;11.43;7.55;;;;;;;27.29;52.34;64828.56;4893594;29;20466;-79
2022/08/16 09:19:44;;;;;;;8.23;7.53;;;;;;;27.46;53.15;64845.91;4886132;29;20322;-79
2022/08/16 09:22:12;;;;;;;10.55;7.32;;;;;;;27.83;51.80;64885.25;4893159;29;20210;-79
2022/08/16 09:24:40;;;;;;;7.22;6.57;;;;;;;27.94;51.79;64894.19;4884866;29;20248;-80
2022/08/16 09:27:07;;;;;;;8.98;7.13;;;;;;;27.67;50.63;64870.53;4883310;29;20241;-81
2022/08/16 09:29:34;;;;;;;7.20;6.57;;;;;;;27.62;50.20;64865.28;4892463;29;20286;-79
2022/08/16 09:32:02;;;;;;;7.07;6.18;;;;;;;27.78;49.66;64882.63;4892990;29;20203;-80
2022/08/16 09:34:29;;;;;;;6.70;6.00;;;;;;;28.02;47.20;64907.81;4893320;29;20271;-80
2022/08/16 09:36:56;;;;;;;5.50;5.00;;;;;;;28.24;45.99;64930.38;4893155;29;20221;-81
2022/08/16 09:39:24;;;;;;;5.85;5.35;;;;;;;28.08;44.79;64910.97;4893111;29;20230;-80
2022/08/16 09:41:55;;;;;;;5.90;5.32;;;;;;;27.98;44.75;64897.84;4886871;29;20202;-79
2022/08/16 09:44:23;;;;;;;6.50;5.47;;;;;;;27.83;44.65;64892.56;4891552;29;20458;-78
2022/08/16 09:46:51;;;;;;;9.77;5.88;;;;;;;28.00;42.95;64903.09;4891356;29;20468;-80
2022/08/16 09:49:19;;;;;;;5.20;4.78;;;;;;;27.91;41.75;64896.28;4883244;29;20422;-81
2022/08/16 09:51:46;;;;;;;5.45;5.15;;;;;;;28.12;42.51;64915.16;4890620;29;20218;-78
2022/08/16 09:54:14;;;;;;;5.65;4.97;;;;;;;28.23;42.31;64927.25;4885176;29;20234;-78
2022/08/16 09:56:41;;;;;;;6.35;5.22;;;;;;;28.33;41.16;64931.97;4891633;29;20235;-82
2022/08/16 09:59:12;;;;;;;5.50;5.00;;;;;;;27.93;42.58;64895.22;4891618;29;20581;-80
2022/08/16 10:01:41;;;;;;;7.82;5.65;;;;;;;27.76;43.54;64879.97;4888895;29;20292;-80
2022/08/16 10:04:08;;;;;;;5.97;4.85;;;;;;;27.90;43.51;64895.22;4891776;29;20298;-78
2022/08/16 10:06:36;;;;;;;5.43;5.03;;;;;;;28.23;43.18;64926.72;4891300;29;20207;-79
2022/08/16 10:09:06;;;;;;;9.30;5.25;;;;;;;28.27;41.71;64938.78;4892690;29;20465;-79
2022/08/16 10:14:19;;;;;;;5.43;4.93;;;;;;;27.75;42.54;64878.94;4892019;29;20306;-80
2022/08/16 10:16:47;;;;;;;5.68;5.28;;;;;;;27.94;41.84;64896.78;4893352;29;20230;-78
2022/08/16 10:19:15;;;;;;;5.05;4.65;;;;;;;27.67;41.23;64862.69;4888455;29;20229;-77
2022/08/16 10:21:42;;;;;;;5.50;4.80;;;;;;;27.65;40.72;64871.56;4879102;29;20213;-78
2022/08/16 10:24:10;;;;;;;5.82;5.22;;;;;;;27.64;41.68;64865.31;4880213;29;20214;-78
2022/08/16 10:26:37;;;;;;;5.55;5.15;;;;;;;28.08;39.87;64914.13;4887973;29;20215;-78
2022/08/16 10:29:05;;;;;;;5.03;4.63;;;;;;;28.39;38.75;64949.28;4892745;29;20313;-80
2022/08/16 10:31:34;;;;;;;5.53;4.95;;;;;;;28.37;36.85;64944.56;4893665;29;20211;-79
2022/08/16 10:34:01;;;;;;;6.47;4.80;;;;;;;28.61;37.82;64968.75;4883221;29;20230;-79
2022/08/16 10:36:29;;;;;;;5.60;5.05;;;;;;;28.88;36.91;64997.63;4893515;29;20230;-79
2022/08/16 10:38:56;;;;;;;5.22;4.82;;;;;;;28.99;35.63;65006.53;4892522;29;20413;-81
2022/08/16 10:41:24;;;;;;;4.90;4.50;;;;;;;28.73;37.24;64976.63;4891692;29;20238;-78
2022/08/16 10:43:51;;;;;;;5.13;4.82;;;;;;;28.44;39.16;64949.28;4882223;29;20226;-79
2022/08/16 10:46:18;;;;;;;4.30;4.10;;;;;;;28.77;36.23;64988.19;4891380;29;20238;-78
2022/08/16 10:48:47;;;;;;;4.50;4.20;;;;;;;29.04;35.95;65009.19;4891697;29;20273;-80
2022/08/16 10:51:14;;;;;;;4.93;4.50;;;;;;;29.45;36.21;65057.00;4890026;29;20234;-81
2022/08/16 10:53:42;;;;;;;4.22;3.92;;;;;;;29.52;35.63;65062.25;4892225;29;20254;-77
2022/08/16 10:56:11;;;;;;;6.38;5.10;;;;;;;29.51;35.51;65063.31;4887857;29;20237;-80
2022/08/16 10:58:40;;;;;;;7.60;4.90;;;;;;;29.78;35.38;65091.72;4879358;29;20408;-78
2022/08/16 11:01:09;;;;;;;7.93;4.75;;;;;;;29.52;35.35;65061.75;4882315;29;20222;-81
2022/08/16 11:03:36;;;;;;;6.88;5.03;;;;;;;29.40;35.18;65049.66;4878435;29;20239;-79
2022/08/16 11:06:06;;;;;;;5.68;5.20;;;;;;;29.30;35.80;65036.00;4890787;29;20238;-77
2022/08/16 11:08:34;;;;;;;5.95;5.00;;;;;;;29.08;37.19;65013.38;4891746;29;20317;-78
2022/08/16 11:11:02;;;;;;;5.25;4.82;;;;;;;28.82;38.79;64990.81;4892685;29;20259;-81
2022/08/16 11:13:29;;;;;;;4.88;4.57;;;;;;;28.75;37.76;64983.44;4886439;29;20457;-80
2022/08/16 11:15:59;;;;;;;4.30;4.10;;;;;;;28.91;38.12;65000.25;4886345;29;20316;-79
2022/08/16 11:18:28;;;;;;;5.15;4.75;;;;;;;29.22;37.57;65027.59;4892297;29;20237;-79
2022/08/16 11:20:57;;;;;;;4.40;3.97;;;;;;;29.04;36.65;65014.44;4892607;29;20281;-79
2022/08/16 11:23:27;;;;;;;5.55;4.07;;;;;;;29.12;35.41;65020.22;4890261;29;20223;-78
2022/08/16 11:25:56;;;;;;;4.85;4.45;;;;;;;29.23;35.65;65031.25;4880038;29;20217;-79
2022/08/16 11:28:24;;;;;;;5.07;4.68;;;;;;;29.54;34.78;65063.84;4893271;29;20242;-79